sensor_id;sensor_type;location;lat;lon;timestamp;P1;durP1;ratioP1;P2;durP2;ratioP2
67442;SDS011;54311;51.726;5.154;2022-12-28T00:00:49;11.45;;;8.65;;
67442;SDS011;54311;51.726;5.154;2022-12-28T00:03:14;14.45;;;9.20;;
67442;SDS011;54311;51.726;5.154;2022-12-28T00:05:40;13.52;;;8.85;;
67442;SDS011;54311;51.726;5.154;2022-12-28T00:08:05;9.43;;;8.48;;
67442;SDS011;54311;51.726;5.154;2022-12-28T00:10:30;18.30;;;8.52;;
67442;SDS011;54311;51.726;5.154;2022-12-28T00:12:56;12.52;;;8.63;;
67442;SDS011;54311;51.726;5.154;2022-12-28T00:15:21;9.07;;;8.27;;
67442;SDS011;54311;51.726;5.154;2022-12-28T00:17:46;10.35;;;8.77;;
67442;SDS011;54311;51.726;5.154;2022-12-28T00:20:12;9.40;;;7.72;;
67442;SDS011;54311;51.726;5.154;2022-12-28T00:22:37;10.48;;;9.20;;
67442;SDS011;54311;51.726;5.154;2022-12-28T00:25:03;11.45;;;9.10;;
67442;SDS011;54311;51.726;5.154;2022-12-28T00:27:28;11.48;;;8.50;;
67442;SDS011;54311;51.726;5.154;2022-12-28T00:29:53;9.98;;;7.97;;
67442;SDS011;54311;51.726;5.154;2022-12-28T00:32:19;10.57;;;8.48;;
67442;SDS011;54311;51.726;5.154;2022-12-28T00:34:45;10.27;;;9.18;;
67442;SDS011;54311;51.726;5.154;2022-12-28T00:37:10;9.82;;;8.90;;
67442;SDS011;54311;51.726;5.154;2022-12-28T00:39:36;13.00;;;9.32;;
67442;SDS011;54311;51.726;5.154;2022-12-28T00:42:01;9.88;;;8.85;;
67442;SDS011;54311;51.726;5.154;2022-12-28T00:44:26;9.85;;;8.73;;
67442;SDS011;54311;51.726;5.154;2022-12-28T00:46:52;11.80;;;9.15;;
67442;SDS011;54311;51.726;5.154;2022-12-28T00:49:17;16.30;;;9.30;;
67442;SDS011;54311;51.726;5.154;2022-12-28T00:51:42;9.70;;;8.77;;
67442;SDS011;54311;51.726;5.154;2022-12-28T00:54:08;11.45;;;9.10;;
67442;SDS011;54311;51.726;5.154;2022-12-28T00:56:33;9.60;;;8.55;;
67442;SDS011;54311;51.726;5.154;2022-12-28T00:58:59;9.25;;;8.40;;
67442;SDS011;54311;51.726;5.154;2022-12-28T01:01:24;11.52;;;8.73;;
67442;SDS011;54311;51.726;5.154;2022-12-28T01:03:51;10.95;;;8.77;;
67442;SDS011;54311;51.726;5.154;2022-12-28T01:06:17;13.10;;;8.90;;
67442;SDS011;54311;51.726;5.154;2022-12-28T01:08:43;11.82;;;8.80;;
67442;SDS011;54311;51.726;5.154;2022-12-28T01:11:10;14.77;;;9.90;;
67442;SDS011;54311;51.726;5.154;2022-12-28T01:13:37;11.68;;;9.23;;
67442;SDS011;54311;51.726;5.154;2022-12-28T01:16:10;10.95;;;9.45;;
67442;SDS011;54311;51.726;5.154;2022-12-28T01:18:36;10.75;;;9.68;;
67442;SDS011;54311;51.726;5.154;2022-12-28T01:21:12;10.07;;;9.25;;
67442;SDS011;54311;51.726;5.154;2022-12-28T01:23:39;11.07;;;9.35;;
67442;SDS011;54311;51.726;5.154;2022-12-28T01:26:04;10.43;;;9.40;;
67442;SDS011;54311;51.726;5.154;2022-12-28T01:28:30;14.07;;;9.77;;
67442;SDS011;54311;51.726;5.154;2022-12-28T01:30:55;13.55;;;10.20;;
67442;SDS011;54311;51.726;5.154;2022-12-28T01:33:21;11.15;;;10.05;;
67442;SDS011;54311;51.726;5.154;2022-12-28T01:35:46;12.27;;;9.15;;
67442;SDS011;54311;51.726;5.154;2022-12-28T01:38:11;10.90;;;10.10;;
67442;SDS011;54311;51.726;5.154;2022-12-28T01:40:40;11.10;;;9.30;;
67442;SDS011;54311;51.726;5.154;2022-12-28T01:43:16;10.55;;;9.55;;
67442;SDS011;54311;51.726;5.154;2022-12-28T01:45:43;12.63;;;8.80;;
67442;SDS011;54311;51.726;5.154;2022-12-28T01:48:15;10.75;;;9.30;;
67442;SDS011;54311;51.726;5.154;2022-12-28T01:50:43;9.05;;;8.40;;
67442;SDS011;54311;51.726;5.154;2022-12-28T01:53:08;11.27;;;8.55;;
67442;SDS011;54311;51.726;5.154;2022-12-28T01:55:34;12.57;;;9.68;;
67442;SDS011;54311;51.726;5.154;2022-12-28T01:58:10;9.73;;;8.27;;
67442;SDS011;54311;51.726;5.154;2022-12-28T02:00:38;11.75;;;8.75;;
67442;SDS011;54311;51.726;5.154;2022-12-28T02:03:08;10.88;;;9.55;;
67442;SDS011;54311;51.726;5.154;2022-12-28T02:05:40;11.55;;;9.25;;
67442;SDS011;54311;51.726;5.154;2022-12-28T02:11:09;11.38;;;9.75;;
67442;SDS011;54311;51.726;5.154;2022-12-28T02:13:36;11.05;;;9.23;;
67442;SDS011;54311;51.726;5.154;2022-12-28T02:16:03;10.60;;;9.52;;
67442;SDS011;54311;51.726;5.154;2022-12-28T02:18:29;13.20;;;9.90;;
67442;SDS011;54311;51.726;5.154;2022-12-28T02:32:14;10.60;;;9.68;;
67442;SDS011;54311;51.726;5.154;2022-12-28T02:34:53;12.93;;;11.68;;
67442;SDS011;54311;51.726;5.154;2022-12-28T02:37:53;12.70;;;11.15;;
67442;SDS011;54311;51.726;5.154;2022-12-28T02:40:32;11.82;;;10.50;;
67442;SDS011;54311;51.726;5.154;2022-12-28T02:43:04;13.93;;;12.68;;
67442;SDS011;54311;51.726;5.154;2022-12-28T02:45:45;13.77;;;12.40;;
67442;SDS011;54311;51.726;5.154;2022-12-28T02:48:46;13.23;;;11.98;;
67442;SDS011;54311;51.726;5.154;2022-12-28T02:51:34;13.93;;;12.43;;
67442;SDS011;54311;51.726;5.154;2022-12-28T02:54:21;13.88;;;12.52;;
67442;SDS011;54311;51.726;5.154;2022-12-28T02:57:49;13.82;;;12.65;;
67442;SDS011;54311;51.726;5.154;2022-12-28T03:00:23;12.98;;;11.77;;
67442;SDS011;54311;51.726;5.154;2022-12-28T03:05:55;14.50;;;12.68;;
67442;SDS011;54311;51.726;5.154;2022-12-28T03:11:22;14.82;;;13.35;;
67442;SDS011;54311;51.726;5.154;2022-12-28T03:14:05;14.20;;;12.77;;
67442;SDS011;54311;51.726;5.154;2022-12-28T03:16:35;14.15;;;12.80;;
67442;SDS011;54311;51.726;5.154;2022-12-28T03:19:23;13.93;;;12.75;;
67442;SDS011;54311;51.726;5.154;2022-12-28T03:22:10;15.60;;;13.88;;
67442;SDS011;54311;51.726;5.154;2022-12-28T03:24:55;14.15;;;13.10;;
67442;SDS011;54311;51.726;5.154;2022-12-28T03:27:38;14.50;;;12.98;;
67442;SDS011;54311;51.726;5.154;2022-12-28T03:30:23;14.98;;;13.52;;
67442;SDS011;54311;51.726;5.154;2022-12-28T03:33:07;13.85;;;11.23;;
67442;SDS011;54311;51.726;5.154;2022-12-28T03:36:38;14.48;;;12.82;;
67442;SDS011;54311;51.726;5.154;2022-12-28T03:38:56;15.63;;;13.70;;
67442;SDS011;54311;51.726;5.154;2022-12-28T03:44:16;13.77;;;12.40;;
67442;SDS011;54311;51.726;5.154;2022-12-28T03:46:51;14.18;;;12.95;;
67442;SDS011;54311;51.726;5.154;2022-12-28T03:49:21;15.52;;;14.07;;
67442;SDS011;54311;51.726;5.154;2022-12-28T03:51:47;14.18;;;12.73;;
67442;SDS011;54311;51.726;5.154;2022-12-28T03:54:16;14.40;;;13.27;;
67442;SDS011;54311;51.726;5.154;2022-12-28T03:56:48;13.27;;;12.18;;
67442;SDS011;54311;51.726;5.154;2022-12-28T03:59:15;15.80;;;13.82;;
67442;SDS011;54311;51.726;5.154;2022-12-28T04:01:41;14.60;;;13.30;;
67442;SDS011;54311;51.726;5.154;2022-12-28T04:04:07;15.77;;;14.23;;
67442;SDS011;54311;51.726;5.154;2022-12-28T04:06:32;13.98;;;12.77;;
67442;SDS011;54311;51.726;5.154;2022-12-28T04:08:58;14.48;;;13.25;;
67442;SDS011;54311;51.726;5.154;2022-12-28T04:11:23;13.77;;;12.57;;
67442;SDS011;54311;51.726;5.154;2022-12-28T04:13:49;14.75;;;13.55;;
67442;SDS011;54311;51.726;5.154;2022-12-28T04:16:14;12.57;;;11.55;;
67442;SDS011;54311;51.726;5.154;2022-12-28T04:18:39;13.05;;;11.73;;
67442;SDS011;54311;51.726;5.154;2022-12-28T04:21:06;14.57;;;13.13;;
67442;SDS011;54311;51.726;5.154;2022-12-28T04:23:32;15.48;;;12.57;;
67442;SDS011;54311;51.726;5.154;2022-12-28T04:25:58;13.93;;;12.73;;
67442;SDS011;54311;51.726;5.154;2022-12-28T04:28:25;14.05;;;12.68;;
67442;SDS011;54311;51.726;5.154;2022-12-28T04:30:51;13.85;;;12.45;;
67442;SDS011;54311;51.726;5.154;2022-12-28T04:33:16;12.38;;;11.15;;
67442;SDS011;54311;51.726;5.154;2022-12-28T04:35:41;14.13;;;12.80;;
67442;SDS011;54311;51.726;5.154;2022-12-28T04:38:07;15.00;;;12.80;;
67442;SDS011;54311;51.726;5.154;2022-12-28T04:40:32;15.52;;;11.85;;
67442;SDS011;54311;51.726;5.154;2022-12-28T04:42:58;15.23;;;12.88;;
67442;SDS011;54311;51.726;5.154;2022-12-28T04:45:23;13.30;;;11.98;;
67442;SDS011;54311;51.726;5.154;2022-12-28T04:47:48;12.55;;;11.02;;
67442;SDS011;54311;51.726;5.154;2022-12-28T04:50:14;11.80;;;10.77;;
67442;SDS011;54311;51.726;5.154;2022-12-28T04:52:39;11.73;;;10.63;;
67442;SDS011;54311;51.726;5.154;2022-12-28T04:55:04;12.70;;;11.73;;
67442;SDS011;54311;51.726;5.154;2022-12-28T04:57:30;11.85;;;10.75;;
67442;SDS011;54311;51.726;5.154;2022-12-28T04:59:55;16.27;;;11.07;;
67442;SDS011;54311;51.726;5.154;2022-12-28T05:02:21;12.68;;;11.43;;
67442;SDS011;54311;51.726;5.154;2022-12-28T05:04:46;11.20;;;10.25;;
67442;SDS011;54311;51.726;5.154;2022-12-28T05:07:12;11.82;;;10.77;;
67442;SDS011;54311;51.726;5.154;2022-12-28T05:09:37;11.95;;;10.88;;
67442;SDS011;54311;51.726;5.154;2022-12-28T05:12:02;11.23;;;9.75;;
67442;SDS011;54311;51.726;5.154;2022-12-28T05:14:28;15.93;;;10.27;;
67442;SDS011;54311;51.726;5.154;2022-12-28T05:16:53;13.52;;;10.27;;
67442;SDS011;54311;51.726;5.154;2022-12-28T05:19:18;10.60;;;9.63;;
67442;SDS011;54311;51.726;5.154;2022-12-28T05:21:44;10.18;;;9.32;;
67442;SDS011;54311;51.726;5.154;2022-12-28T05:24:09;10.55;;;9.63;;
67442;SDS011;54311;51.726;5.154;2022-12-28T05:26:34;10.10;;;9.20;;
67442;SDS011;54311;51.726;5.154;2022-12-28T05:29:00;12.20;;;10.02;;
67442;SDS011;54311;51.726;5.154;2022-12-28T05:31:25;10.45;;;9.48;;
67442;SDS011;54311;51.726;5.154;2022-12-28T05:33:51;9.60;;;8.80;;
67442;SDS011;54311;51.726;5.154;2022-12-28T05:36:18;10.18;;;9.30;;
67442;SDS011;54311;51.726;5.154;2022-12-28T05:38:47;9.40;;;8.57;;
67442;SDS011;54311;51.726;5.154;2022-12-28T05:41:14;11.38;;;10.35;;
67442;SDS011;54311;51.726;5.154;2022-12-28T05:43:44;9.77;;;8.93;;
67442;SDS011;54311;51.726;5.154;2022-12-28T05:46:11;9.43;;;8.63;;
67442;SDS011;54311;51.726;5.154;2022-12-28T05:48:43;10.18;;;9.38;;
67442;SDS011;54311;51.726;5.154;2022-12-28T05:51:13;11.20;;;10.18;;
67442;SDS011;54311;51.726;5.154;2022-12-28T05:53:39;13.85;;;9.27;;
67442;SDS011;54311;51.726;5.154;2022-12-28T05:56:15;10.20;;;8.95;;
67442;SDS011;54311;51.726;5.154;2022-12-28T05:58:42;11.07;;;9.65;;
67442;SDS011;54311;51.726;5.154;2022-12-28T06:01:10;9.93;;;9.00;;
67442;SDS011;54311;51.726;5.154;2022-12-28T06:03:37;10.00;;;9.05;;
67442;SDS011;54311;51.726;5.154;2022-12-28T06:06:04;10.27;;;9.40;;
67442;SDS011;54311;51.726;5.154;2022-12-28T06:08:35;11.20;;;9.45;;
67442;SDS011;54311;51.726;5.154;2022-12-28T06:11:01;10.25;;;9.30;;
67442;SDS011;54311;51.726;5.154;2022-12-28T06:13:28;10.52;;;9.48;;
67442;SDS011;54311;51.726;5.154;2022-12-28T06:15:54;10.90;;;9.35;;
67442;SDS011;54311;51.726;5.154;2022-12-28T06:18:20;10.20;;;9.23;;
67442;SDS011;54311;51.726;5.154;2022-12-28T06:20:45;11.18;;;10.07;;
67442;SDS011;54311;51.726;5.154;2022-12-28T06:23:10;9.80;;;9.10;;
67442;SDS011;54311;51.726;5.154;2022-12-28T06:25:38;10.52;;;9.60;;
67442;SDS011;54311;51.726;5.154;2022-12-28T06:28:03;9.75;;;9.05;;
67442;SDS011;54311;51.726;5.154;2022-12-28T06:30:29;12.10;;;9.13;;
67442;SDS011;54311;51.726;5.154;2022-12-28T06:32:55;10.10;;;8.95;;
67442;SDS011;54311;51.726;5.154;2022-12-28T06:35:20;9.52;;;8.82;;
67442;SDS011;54311;51.726;5.154;2022-12-28T06:37:46;9.30;;;8.52;;
67442;SDS011;54311;51.726;5.154;2022-12-28T06:40:12;9.02;;;8.52;;
67442;SDS011;54311;51.726;5.154;2022-12-28T06:42:37;9.45;;;8.80;;
67442;SDS011;54311;51.726;5.154;2022-12-28T06:45:02;9.68;;;8.90;;
67442;SDS011;54311;51.726;5.154;2022-12-28T06:47:28;9.60;;;8.90;;
67442;SDS011;54311;51.726;5.154;2022-12-28T06:49:53;9.70;;;8.98;;
67442;SDS011;54311;51.726;5.154;2022-12-28T06:52:19;9.27;;;8.52;;
67442;SDS011;54311;51.726;5.154;2022-12-28T06:54:45;9.93;;;9.00;;
67442;SDS011;54311;51.726;5.154;2022-12-28T06:57:11;8.85;;;8.05;;
67442;SDS011;54311;51.726;5.154;2022-12-28T06:59:36;9.23;;;8.45;;
67442;SDS011;54311;51.726;5.154;2022-12-28T07:02:01;10.30;;;7.95;;
67442;SDS011;54311;51.726;5.154;2022-12-28T07:04:27;11.02;;;8.85;;
67442;SDS011;54311;51.726;5.154;2022-12-28T07:06:52;9.70;;;8.70;;
67442;SDS011;54311;51.726;5.154;2022-12-28T07:09:18;10.05;;;8.85;;
67442;SDS011;54311;51.726;5.154;2022-12-28T07:11:44;13.10;;;9.88;;
67442;SDS011;54311;51.726;5.154;2022-12-28T07:14:09;8.80;;;7.93;;
67442;SDS011;54311;51.726;5.154;2022-12-28T07:16:35;9.68;;;8.55;;
67442;SDS011;54311;51.726;5.154;2022-12-28T07:19:00;9.40;;;8.27;;
67442;SDS011;54311;51.726;5.154;2022-12-28T07:21:33;10.32;;;8.52;;
67442;SDS011;54311;51.726;5.154;2022-12-28T07:24:00;11.00;;;8.57;;
67442;SDS011;54311;51.726;5.154;2022-12-28T07:26:27;8.85;;;8.10;;
67442;SDS011;54311;51.726;5.154;2022-12-28T07:28:54;8.45;;;7.60;;
67442;SDS011;54311;51.726;5.154;2022-12-28T07:31:22;8.30;;;7.75;;
67442;SDS011;54311;51.726;5.154;2022-12-28T07:33:53;12.35;;;8.02;;
67442;SDS011;54311;51.726;5.154;2022-12-28T07:36:20;8.70;;;7.80;;
67442;SDS011;54311;51.726;5.154;2022-12-28T07:38:47;8.82;;;7.10;;
67442;SDS011;54311;51.726;5.154;2022-12-28T07:41:13;9.27;;;7.85;;
67442;SDS011;54311;51.726;5.154;2022-12-28T07:43:40;10.15;;;7.93;;
67442;SDS011;54311;51.726;5.154;2022-12-28T07:46:07;11.00;;;7.65;;
67442;SDS011;54311;51.726;5.154;2022-12-28T07:48:34;11.32;;;8.27;;
67442;SDS011;54311;51.726;5.154;2022-12-28T07:51:07;9.68;;;7.97;;
67442;SDS011;54311;51.726;5.154;2022-12-28T07:53:38;9.40;;;8.55;;
67442;SDS011;54311;51.726;5.154;2022-12-28T07:56:04;8.90;;;8.13;;
67442;SDS011;54311;51.726;5.154;2022-12-28T07:58:31;8.93;;;8.02;;
67442;SDS011;54311;51.726;5.154;2022-12-28T08:03:29;9.25;;;7.90;;
67442;SDS011;54311;51.726;5.154;2022-12-28T08:05:55;12.68;;;8.75;;
67442;SDS011;54311;51.726;5.154;2022-12-28T08:08:20;8.55;;;7.85;;
67442;SDS011;54311;51.726;5.154;2022-12-28T08:10:45;9.18;;;8.27;;
67442;SDS011;54311;51.726;5.154;2022-12-28T08:13:11;9.40;;;8.40;;
67442;SDS011;54311;51.726;5.154;2022-12-28T08:15:36;8.52;;;7.82;;
67442;SDS011;54311;51.726;5.154;2022-12-28T08:18:01;10.18;;;8.00;;
67442;SDS011;54311;51.726;5.154;2022-12-28T08:20:27;7.90;;;7.40;;
67442;SDS011;54311;51.726;5.154;2022-12-28T08:22:52;9.18;;;8.23;;
67442;SDS011;54311;51.726;5.154;2022-12-28T08:25:18;10.57;;;7.82;;
67442;SDS011;54311;51.726;5.154;2022-12-28T08:27:43;9.55;;;7.85;;
67442;SDS011;54311;51.726;5.154;2022-12-28T08:30:09;10.90;;;8.73;;
67442;SDS011;54311;51.726;5.154;2022-12-28T08:32:35;9.40;;;8.50;;
67442;SDS011;54311;51.726;5.154;2022-12-28T08:35:00;9.40;;;8.27;;
67442;SDS011;54311;51.726;5.154;2022-12-28T08:37:25;11.88;;;7.85;;
67442;SDS011;54311;51.726;5.154;2022-12-28T08:39:51;9.23;;;8.52;;
67442;SDS011;54311;51.726;5.154;2022-12-28T08:42:16;13.02;;;8.30;;
67442;SDS011;54311;51.726;5.154;2022-12-28T08:44:41;11.18;;;7.97;;
67442;SDS011;54311;51.726;5.154;2022-12-28T08:47:07;8.45;;;7.22;;
67442;SDS011;54311;51.726;5.154;2022-12-28T08:49:32;9.18;;;7.88;;
67442;SDS011;54311;51.726;5.154;2022-12-28T08:51:57;12.52;;;7.50;;
67442;SDS011;54311;51.726;5.154;2022-12-28T08:54:23;7.30;;;6.68;;
67442;SDS011;54311;51.726;5.154;2022-12-28T08:56:48;10.13;;;7.43;;
67442;SDS011;54311;51.726;5.154;2022-12-28T08:59:15;10.32;;;7.38;;
67442;SDS011;54311;51.726;5.154;2022-12-28T09:01:41;14.63;;;6.55;;
67442;SDS011;54311;51.726;5.154;2022-12-28T09:04:10;8.57;;;6.45;;
67442;SDS011;54311;51.726;5.154;2022-12-28T09:06:37;11.35;;;6.80;;
67442;SDS011;54311;51.726;5.154;2022-12-28T09:09:03;9.23;;;6.68;;
67442;SDS011;54311;51.726;5.154;2022-12-28T09:11:31;7.80;;;7.10;;
67442;SDS011;54311;51.726;5.154;2022-12-28T09:13:57;9.27;;;7.55;;
67442;SDS011;54311;51.726;5.154;2022-12-28T09:16:24;10.98;;;7.07;;
67442;SDS011;54311;51.726;5.154;2022-12-28T09:18:55;9.07;;;6.65;;
67442;SDS011;54311;51.726;5.154;2022-12-28T09:21:23;10.60;;;6.63;;
67442;SDS011;54311;51.726;5.154;2022-12-28T09:23:49;11.88;;;6.80;;
67442;SDS011;54311;51.726;5.154;2022-12-28T09:26:16;12.95;;;7.18;;
67442;SDS011;54311;51.726;5.154;2022-12-28T09:28:46;9.70;;;6.88;;
67442;SDS011;54311;51.726;5.154;2022-12-28T09:31:12;7.05;;;5.93;;
67442;SDS011;54311;51.726;5.154;2022-12-28T09:33:38;8.30;;;6.85;;
67442;SDS011;54311;51.726;5.154;2022-12-28T09:36:21;13.18;;;7.28;;
67442;SDS011;54311;51.726;5.154;2022-12-28T09:38:47;10.90;;;6.63;;
67442;SDS011;54311;51.726;5.154;2022-12-28T09:41:28;8.13;;;6.93;;
67442;SDS011;54311;51.726;5.154;2022-12-28T09:44:03;13.38;;;7.07;;
67442;SDS011;54311;51.726;5.154;2022-12-28T09:46:34;8.98;;;6.82;;
67442;SDS011;54311;51.726;5.154;2022-12-28T09:49:00;11.90;;;7.32;;
67442;SDS011;54311;51.726;5.154;2022-12-28T09:51:30;9.13;;;7.70;;
67442;SDS011;54311;51.726;5.154;2022-12-28T09:53:57;9.68;;;6.70;;
67442;SDS011;54311;51.726;5.154;2022-12-28T09:56:27;13.10;;;7.05;;
67442;SDS011;54311;51.726;5.154;2022-12-28T09:58:56;7.15;;;6.10;;
67442;SDS011;54311;51.726;5.154;2022-12-28T10:01:22;7.80;;;6.57;;
67442;SDS011;54311;51.726;5.154;2022-12-28T10:03:48;12.02;;;7.55;;
67442;SDS011;54311;51.726;5.154;2022-12-28T10:06:15;7.68;;;6.85;;
67442;SDS011;54311;51.726;5.154;2022-12-28T10:08:51;10.48;;;5.97;;
67442;SDS011;54311;51.726;5.154;2022-12-28T10:11:20;8.85;;;7.03;;
67442;SDS011;54311;51.726;5.154;2022-12-28T10:13:52;12.43;;;6.63;;
67442;SDS011;54311;51.726;5.154;2022-12-28T10:16:20;8.13;;;5.93;;
67442;SDS011;54311;51.726;5.154;2022-12-28T10:18:46;11.38;;;6.45;;
67442;SDS011;54311;51.726;5.154;2022-12-28T10:21:13;10.07;;;5.68;;
67442;SDS011;54311;51.726;5.154;2022-12-28T10:23:39;11.00;;;5.60;;
67442;SDS011;54311;51.726;5.154;2022-12-28T10:26:08;9.35;;;5.80;;
67442;SDS011;54311;51.726;5.154;2022-12-28T10:28:40;5.50;;;5.00;;
67442;SDS011;54311;51.726;5.154;2022-12-28T10:31:10;6.47;;;5.73;;
67442;SDS011;54311;51.726;5.154;2022-12-28T10:33:37;9.60;;;6.15;;
67442;SDS011;54311;51.726;5.154;2022-12-28T10:36:04;6.07;;;5.53;;
67442;SDS011;54311;51.726;5.154;2022-12-28T10:38:33;6.50;;;5.68;;
67442;SDS011;54311;51.726;5.154;2022-12-28T10:40:59;6.57;;;5.65;;
67442;SDS011;54311;51.726;5.154;2022-12-28T10:43:32;5.82;;;5.32;;
67442;SDS011;54311;51.726;5.154;2022-12-28T10:45:59;5.47;;;5.03;;
67442;SDS011;54311;51.726;5.154;2022-12-28T10:48:48;5.72;;;5.30;;
67442;SDS011;54311;51.726;5.154;2022-12-28T10:51:17;7.07;;;5.25;;
67442;SDS011;54311;51.726;5.154;2022-12-28T10:53:45;5.80;;;5.30;;
67442;SDS011;54311;51.726;5.154;2022-12-28T10:58:41;7.88;;;5.75;;
67442;SDS011;54311;51.726;5.154;2022-12-28T11:03:36;6.53;;;6.03;;
67442;SDS011;54311;51.726;5.154;2022-12-28T11:09:43;7.60;;;5.45;;
67442;SDS011;54311;51.726;5.154;2022-12-28T11:11:44;6.22;;;5.63;;
67442;SDS011;54311;51.726;5.154;2022-12-28T11:16:38;5.80;;;5.35;;
67442;SDS011;54311;51.726;5.154;2022-12-28T11:19:04;5.90;;;5.40;;
67442;SDS011;54311;51.726;5.154;2022-12-28T11:21:30;6.78;;;5.95;;
67442;SDS011;54311;51.726;5.154;2022-12-28T11:23:55;7.95;;;5.72;;
67442;SDS011;54311;51.726;5.154;2022-12-28T11:26:21;6.75;;;6.00;;
67442;SDS011;54311;51.726;5.154;2022-12-28T11:28:50;7.15;;;6.55;;
67442;SDS011;54311;51.726;5.154;2022-12-28T11:31:26;8.57;;;5.95;;
67442;SDS011;54311;51.726;5.154;2022-12-28T11:34:00;6.30;;;5.80;;
67442;SDS011;54311;51.726;5.154;2022-12-28T11:36:28;9.88;;;6.00;;
67442;SDS011;54311;51.726;5.154;2022-12-28T11:38:55;9.25;;;6.68;;
67442;SDS011;54311;51.726;5.154;2022-12-28T11:43:50;6.00;;;5.53;;
67442;SDS011;54311;51.726;5.154;2022-12-28T11:48:47;6.35;;;5.68;;
67442;SDS011;54311;51.726;5.154;2022-12-28T11:51:33;9.30;;;5.55;;
67442;SDS011;54311;51.726;5.154;2022-12-28T11:59:18;7.47;;;6.68;;
67442;SDS011;54311;51.726;5.154;2022-12-28T12:01:49;6.88;;;6.13;;
67442;SDS011;54311;51.726;5.154;2022-12-28T12:04:17;8.63;;;7.75;;
67442;SDS011;54311;51.726;5.154;2022-12-28T12:11:50;7.07;;;6.40;;
67442;SDS011;54311;51.726;5.154;2022-12-28T12:14:17;6.85;;;5.75;;
67442;SDS011;54311;51.726;5.154;2022-12-28T12:16:51;11.18;;;6.50;;
67442;SDS011;54311;51.726;5.154;2022-12-28T12:19:21;6.70;;;6.20;;
67442;SDS011;54311;51.726;5.154;2022-12-28T12:22:04;11.30;;;5.70;;
67442;SDS011;54311;51.726;5.154;2022-12-28T12:25:17;9.68;;;6.72;;
67442;SDS011;54311;51.726;5.154;2022-12-28T12:27:35;9.80;;;7.38;;
67442;SDS011;54311;51.726;5.154;2022-12-28T12:30:13;8.73;;;6.88;;
67442;SDS011;54311;51.726;5.154;2022-12-28T12:32:44;10.65;;;7.43;;
67442;SDS011;54311;51.726;5.154;2022-12-28T12:35:12;12.90;;;7.05;;
67442;SDS011;54311;51.726;5.154;2022-12-28T12:37:55;9.23;;;6.65;;
67442;SDS011;54311;51.726;5.154;2022-12-28T12:43:21;10.63;;;8.07;;
67442;SDS011;54311;51.726;5.154;2022-12-28T12:52:03;15.50;;;8.20;;
67442;SDS011;54311;51.726;5.154;2022-12-28T12:54:48;9.95;;;6.68;;
67442;SDS011;54311;51.726;5.154;2022-12-28T13:00:14;13.68;;;7.47;;
67442;SDS011;54311;51.726;5.154;2022-12-28T13:03:04;11.77;;;7.43;;
67442;SDS011;54311;51.726;5.154;2022-12-28T13:05:37;7.78;;;7.05;;
67442;SDS011;54311;51.726;5.154;2022-12-28T13:08:06;8.52;;;6.80;;
67442;SDS011;54311;51.726;5.154;2022-12-28T13:10:44;11.95;;;6.47;;
67442;SDS011;54311;51.726;5.154;2022-12-28T13:13:16;13.85;;;7.55;;
67442;SDS011;54311;51.726;5.154;2022-12-28T13:15:45;10.70;;;7.53;;
67442;SDS011;54311;51.726;5.154;2022-12-28T13:18:15;14.48;;;7.28;;
67442;SDS011;54311;51.726;5.154;2022-12-28T13:20:56;18.20;;;8.82;;
67442;SDS011;54311;51.726;5.154;2022-12-28T13:23:22;7.45;;;6.90;;
67442;SDS011;54311;51.726;5.154;2022-12-28T13:25:51;11.27;;;6.97;;
67442;SDS011;54311;51.726;5.154;2022-12-28T13:28:19;16.67;;;7.13;;
67442;SDS011;54311;51.726;5.154;2022-12-28T13:33:56;11.43;;;6.53;;
67442;SDS011;54311;51.726;5.154;2022-12-28T13:36:23;19.27;;;7.80;;
67442;SDS011;54311;51.726;5.154;2022-12-28T13:38:58;16.92;;;9.05;;
67442;SDS011;54311;51.726;5.154;2022-12-28T13:41:26;14.20;;;8.85;;
67442;SDS011;54311;51.726;5.154;2022-12-28T13:44:04;13.80;;;8.30;;
67442;SDS011;54311;51.726;5.154;2022-12-28T13:46:36;11.68;;;6.60;;
67442;SDS011;54311;51.726;5.154;2022-12-28T13:49:03;10.23;;;6.68;;
67442;SDS011;54311;51.726;5.154;2022-12-28T13:51:29;13.15;;;6.43;;
67442;SDS011;54311;51.726;5.154;2022-12-28T13:53:56;9.57;;;6.85;;
67442;SDS011;54311;51.726;5.154;2022-12-28T13:56:24;10.88;;;6.82;;
67442;SDS011;54311;51.726;5.154;2022-12-28T13:59:00;7.43;;;5.65;;
67442;SDS011;54311;51.726;5.154;2022-12-28T14:01:33;11.73;;;6.25;;
67442;SDS011;54311;51.726;5.154;2022-12-28T14:04:04;11.60;;;6.03;;
67442;SDS011;54311;51.726;5.154;2022-12-28T14:06:31;9.50;;;6.43;;
67442;SDS011;54311;51.726;5.154;2022-12-28T14:08:57;8.90;;;6.70;;
67442;SDS011;54311;51.726;5.154;2022-12-28T14:11:23;16.75;;;6.93;;
67442;SDS011;54311;51.726;5.154;2022-12-28T14:13:48;14.50;;;6.95;;
67442;SDS011;54311;51.726;5.154;2022-12-28T14:16:14;10.00;;;6.75;;
67442;SDS011;54311;51.726;5.154;2022-12-28T14:18:39;10.75;;;6.57;;
67442;SDS011;54311;51.726;5.154;2022-12-28T14:21:05;12.93;;;6.57;;
67442;SDS011;54311;51.726;5.154;2022-12-28T14:23:35;8.32;;;5.53;;
67442;SDS011;54311;51.726;5.154;2022-12-28T14:26:02;9.15;;;6.50;;
67442;SDS011;54311;51.726;5.154;2022-12-28T14:28:48;10.40;;;6.78;;
67442;SDS011;54311;51.726;5.154;2022-12-28T14:31:18;10.10;;;7.10;;
67442;SDS011;54311;51.726;5.154;2022-12-28T14:36:21;13.70;;;6.60;;
67442;SDS011;54311;51.726;5.154;2022-12-28T14:38:49;11.43;;;5.65;;
67442;SDS011;54311;51.726;5.154;2022-12-28T14:41:20;11.88;;;5.85;;
67442;SDS011;54311;51.726;5.154;2022-12-28T14:43:56;7.50;;;5.30;;
67442;SDS011;54311;51.726;5.154;2022-12-28T14:46:32;8.85;;;5.38;;
67442;SDS011;54311;51.726;5.154;2022-12-28T14:49:22;5.55;;;4.90;;
67442;SDS011;54311;51.726;5.154;2022-12-28T14:51:48;10.05;;;6.25;;
67442;SDS011;54311;51.726;5.154;2022-12-28T14:54:47;9.73;;;5.35;;
67442;SDS011;54311;51.726;5.154;2022-12-28T15:00:06;15.40;;;6.90;;
67442;SDS011;54311;51.726;5.154;2022-12-28T15:02:52;10.02;;;5.22;;
67442;SDS011;54311;51.726;5.154;2022-12-28T15:05:32;9.65;;;5.80;;
67442;SDS011;54311;51.726;5.154;2022-12-28T15:08:02;11.05;;;6.03;;
67442;SDS011;54311;51.726;5.154;2022-12-28T15:10:28;12.13;;;5.80;;
67442;SDS011;54311;51.726;5.154;2022-12-28T15:12:53;7.47;;;5.40;;
67442;SDS011;54311;51.726;5.154;2022-12-28T15:15:19;9.40;;;5.45;;
67442;SDS011;54311;51.726;5.154;2022-12-28T15:17:45;5.97;;;5.38;;
67442;SDS011;54311;51.726;5.154;2022-12-28T15:20:11;6.32;;;5.45;;
67442;SDS011;54311;51.726;5.154;2022-12-28T15:22:36;5.95;;;5.43;;
67442;SDS011;54311;51.726;5.154;2022-12-28T15:25:01;11.15;;;6.13;;
67442;SDS011;54311;51.726;5.154;2022-12-28T15:27:27;9.02;;;5.45;;
67442;SDS011;54311;51.726;5.154;2022-12-28T15:29:52;11.13;;;5.80;;
67442;SDS011;54311;51.726;5.154;2022-12-28T15:32:17;11.55;;;5.82;;
67442;SDS011;54311;51.726;5.154;2022-12-28T15:34:43;7.85;;;5.35;;
67442;SDS011;54311;51.726;5.154;2022-12-28T15:37:08;9.48;;;5.07;;
67442;SDS011;54311;51.726;5.154;2022-12-28T15:39:34;10.25;;;5.75;;
67442;SDS011;54311;51.726;5.154;2022-12-28T15:42:00;11.13;;;5.18;;
67442;SDS011;54311;51.726;5.154;2022-12-28T15:44:25;10.85;;;5.95;;
67442;SDS011;54311;51.726;5.154;2022-12-28T15:46:50;11.35;;;5.55;;
67442;SDS011;54311;51.726;5.154;2022-12-28T15:49:16;8.35;;;5.70;;
67442;SDS011;54311;51.726;5.154;2022-12-28T15:51:42;7.70;;;5.72;;
67442;SDS011;54311;51.726;5.154;2022-12-28T15:54:09;10.38;;;6.00;;
67442;SDS011;54311;51.726;5.154;2022-12-28T15:56:36;12.13;;;6.30;;
67442;SDS011;54311;51.726;5.154;2022-12-28T15:59:03;12.25;;;6.30;;
67442;SDS011;54311;51.726;5.154;2022-12-28T16:01:35;8.85;;;5.53;;